PWSweather.com
Personal Weather Stations
Station Observations
ATHRURAL
Rural Hall, NC 27045

Rural Hall, NC 27045

Lat: 36.23113, Lon: -80.284123

Elevation: 978

Station Type: WS-1080

High Low Average
Temperature 53.6°F12.0°C 28.9°F-1.7°C 41.3°F5.2°C
Dew Point 43.5°F6.4°C 27.0°F-2.8°C 32.4°F0.2°C
Winds 3.6 mph 5.8 kmh Calm Calm 2.0 mph S3.2 kmh S
Wind Gusts 6.0 mph9.7 kmh -- 3.0 mph4.8 kmh
Humidity 95% 51% 73%
Pressure 30.11 in1019.6 mb 30.00 in1015.9 mb -
Precipitation 0.01 in0.3 mm - -
Hour Temp Dew Point Humidity Winds Wind Gusts Pressure Precip Precip Rate Daily Precip Total
12:02 AM 39.4°F4.1°C 28.8°F-1.8°C 66% 4.1 mph NW6.6 kmh NW 7.6 mph12.2 kmh 30.02 in1016.6 mb 0.00 in0.0 mm 0.00 in/hr0.0 mm/hr 0.00 in0.0 mm
12:17 AM 39.4°F4.1°C 29.2°F-1.6°C 67% 3.9 mph WSW6.3 kmh WSW 5.4 mph8.7 kmh 30.03 in1016.9 mb 0.00 in0.0 mm 0.00 in/hr0.0 mm/hr 0.00 in0.0 mm
12:32 AM 38.8°F3.8°C 28.7°F-1.8°C 67% 4.1 mph WSW6.6 kmh WSW 6.9 mph11.1 kmh 30.01 in1016.3 mb 0.00 in0.0 mm 0.00 in/hr0.0 mm/hr 0.00 in0.0 mm
12:47 AM 38.3°F3.5°C 28.9°F-1.7°C 69% 3.8 mph WSW6.1 kmh WSW 9.8 mph15.8 kmh 30.02 in1016.6 mb 0.00 in0.0 mm 0.00 in/hr0.0 mm/hr 0.00 in0.0 mm
01:02 AM 37.8°F3.2°C 29.1°F-1.6°C 71% 2.8 mph WNW4.5 kmh WNW 4.5 mph7.2 kmh 30.02 in1016.6 mb 0.00 in0.0 mm 0.00 in/hr0.0 mm/hr 0.00 in0.0 mm
01:17 AM 37.4°F3.0°C 28.8°F-1.8°C 71% 2.5 mph NW4.0 kmh NW 4.5 mph7.2 kmh 30.02 in1016.6 mb 0.00 in0.0 mm 0.00 in/hr0.0 mm/hr 0.00 in0.0 mm
01:32 AM 36.9°F2.7°C 29.0°F-1.7°C 73% 2.4 mph NW3.9 kmh NW 3.8 mph6.1 kmh 30.02 in1016.6 mb 0.00 in0.0 mm 0.00 in/hr0.0 mm/hr 0.00 in0.0 mm
01:47 AM 35.8°F2.1°C 28.3°F-2.1°C 74% 1.4 mph NNW2.3 kmh NNW 2.2 mph3.5 kmh 30.02 in1016.6 mb 0.00 in0.0 mm 0.00 in/hr0.0 mm/hr 0.00 in0.0 mm
02:02 AM 35.1°F1.7°C 28.2°F-2.1°C 76% 0.9 mph NW1.4 kmh NW 1.6 mph2.6 kmh 30.02 in1016.6 mb 0.00 in0.0 mm 0.00 in/hr0.0 mm/hr 0.00 in0.0 mm
02:17 AM 34.0°F1.1°C 28.1°F-2.2°C 79% 1.5 mph NW2.4 kmh NW 3.8 mph6.1 kmh 30.02 in1016.6 mb 0.00 in0.0 mm 0.00 in/hr0.0 mm/hr 0.00 in0.0 mm
02:32 AM 33.6°F0.9°C 28.1°F-2.2°C 80% 0.7 mph NW1.1 kmh NW 1.6 mph2.6 kmh 30.02 in1016.6 mb 0.00 in0.0 mm 0.00 in/hr0.0 mm/hr 0.00 in0.0 mm
02:47 AM 33.3°F0.7°C 27.8°F-2.3°C 80% Calm Calm -- 30.02 in1016.6 mb 0.00 in0.0 mm 0.00 in/hr0.0 mm/hr 0.00 in0.0 mm
03:02 AM 32.9°F0.5°C 27.7°F-2.4°C 81% 0.4 mph NW0.6 kmh NW 1.6 mph2.6 kmh 30.02 in1016.6 mb 0.00 in0.0 mm 0.00 in/hr0.0 mm/hr 0.00 in0.0 mm
03:17 AM 32.7°F0.4°C 28.1°F-2.2°C 83% 0.7 mph NW1.1 kmh NW 1.6 mph2.6 kmh 30.03 in1016.9 mb 0.00 in0.0 mm 0.00 in/hr0.0 mm/hr 0.00 in0.0 mm
03:32 AM 32.4°F0.2°C 28.1°F-2.2°C 84% 1.2 mph NW1.9 kmh NW 1.6 mph2.6 kmh 30.03 in1016.9 mb 0.00 in0.0 mm 0.00 in/hr0.0 mm/hr 0.00 in0.0 mm
03:47 AM 32.4°F0.2°C 27.8°F-2.3°C 83% 0.6 mph W1.0 kmh W 1.6 mph2.6 kmh 30.03 in1016.9 mb 0.00 in0.0 mm 0.00 in/hr0.0 mm/hr 0.00 in0.0 mm
04:02 AM 31.8°F-0.1°C 28.1°F-2.2°C 86% 1.0 mph WNW1.6 kmh WNW 2.2 mph3.5 kmh 30.02 in1016.6 mb 0.00 in0.0 mm 0.00 in/hr0.0 mm/hr 0.00 in0.0 mm
04:17 AM 31.6°F-0.2°C 27.7°F-2.4°C 85% Calm Calm 0.7 mph1.1 kmh 30.01 in1016.3 mb 0.00 in0.0 mm 0.00 in/hr0.0 mm/hr 0.00 in0.0 mm
04:32 AM 31.6°F-0.2°C 28.2°F-2.1°C 87% 1.5 mph NW2.4 kmh NW 2.2 mph3.5 kmh 30.01 in1016.3 mb 0.00 in0.0 mm 0.00 in/hr0.0 mm/hr 0.00 in0.0 mm
04:47 AM 31.3°F-0.4°C 27.6°F-2.4°C 86% 0.6 mph SW1.0 kmh SW 1.6 mph2.6 kmh 30.01 in1016.3 mb 0.00 in0.0 mm 0.00 in/hr0.0 mm/hr 0.00 in0.0 mm
05:02 AM 30.6°F-0.8°C 27.2°F-2.7°C 87% Calm Calm -- 30.01 in1016.3 mb 0.00 in0.0 mm 0.00 in/hr0.0 mm/hr 0.00 in0.0 mm
05:17 AM 30.7°F-0.7°C 27.6°F-2.4°C 88% 0.6 mph WNW1.0 kmh WNW 1.6 mph2.6 kmh 30.00 in1015.9 mb 0.00 in0.0 mm 0.00 in/hr0.0 mm/hr 0.00 in0.0 mm
05:32 AM 30.9°F-0.6°C 28.1°F-2.2°C 89% 1.4 mph NW2.3 kmh NW 2.2 mph3.5 kmh 30.01 in1016.3 mb 0.00 in0.0 mm 0.00 in/hr0.0 mm/hr 0.00 in0.0 mm
05:47 AM 31.1°F-0.5°C 28.3°F-2.1°C 89% 0.9 mph WNW1.4 kmh WNW 2.2 mph3.5 kmh 30.01 in1016.3 mb 0.00 in0.0 mm 0.00 in/hr0.0 mm/hr 0.00 in0.0 mm
06:02 AM 30.7°F-0.7°C 27.9°F-2.3°C 89% 0.8 mph N1.3 kmh N 2.2 mph3.5 kmh 30.02 in1016.6 mb 0.00 in0.0 mm 0.00 in/hr0.0 mm/hr 0.00 in0.0 mm
06:17 AM 30.0°F-1.1°C 27.5°F-2.5°C 90% Calm Calm -- 30.02 in1016.6 mb 0.00 in0.0 mm 0.00 in/hr0.0 mm/hr 0.00 in0.0 mm
06:32 AM 29.8°F-1.2°C 27.8°F-2.3°C 92% 1.0 mph NW1.6 kmh NW 1.6 mph2.6 kmh 30.02 in1016.6 mb 0.00 in0.0 mm 0.00 in/hr0.0 mm/hr 0.00 in0.0 mm
06:47 AM 29.3°F-1.5°C 27.0°F-2.8°C 91% 0.2 mph S0.3 kmh S 1.6 mph2.6 kmh 30.03 in1016.9 mb 0.00 in0.0 mm 0.00 in/hr0.0 mm/hr 0.00 in0.0 mm
07:02 AM 28.9°F-1.7°C 27.7°F-2.4°C 95% 0.5 mph N0.8 kmh N 2.2 mph3.5 kmh 30.04 in1017.3 mb 0.00 in0.0 mm 0.00 in/hr0.0 mm/hr 0.00 in0.0 mm
07:17 AM 29.5°F-1.4°C 28.0°F-2.2°C 94% 1.1 mph NW1.8 kmh NW 1.6 mph2.6 kmh 30.04 in1017.3 mb 0.00 in0.0 mm 0.00 in/hr0.0 mm/hr 0.00 in0.0 mm
07:32 AM 29.5°F-1.4°C 27.7°F-2.4°C 93% 0.2 mph NW0.3 kmh NW 1.6 mph2.6 kmh 30.04 in1017.3 mb 0.00 in0.0 mm 0.00 in/hr0.0 mm/hr 0.00 in0.0 mm
07:47 AM 29.7°F-1.3°C 27.9°F-2.3°C 93% Calm Calm -- 30.05 in1017.6 mb 0.00 in0.0 mm 0.00 in/hr0.0 mm/hr 0.00 in0.0 mm
08:02 AM 30.4°F-0.9°C 28.4°F-2.0°C 92% Calm Calm -- 30.05 in1017.6 mb 0.00 in0.0 mm 0.00 in/hr0.0 mm/hr 0.00 in0.0 mm
08:17 AM 30.6°F-0.8°C 28.5°F-1.9°C 92% Calm Calm -- 30.05 in1017.6 mb 0.00 in0.0 mm 0.00 in/hr0.0 mm/hr 0.00 in0.0 mm
08:32 AM 30.9°F-0.6°C 29.2°F-1.6°C 93% 1.5 mph NNW2.4 kmh NNW 3.1 mph5.0 kmh 30.06 in1017.9 mb 0.00 in0.0 mm 0.00 in/hr0.0 mm/hr 0.00 in0.0 mm
08:47 AM 31.6°F-0.2°C 29.6°F-1.3°C 92% Calm Calm -- 30.06 in1017.9 mb 0.00 in0.0 mm 0.00 in/hr0.0 mm/hr 0.00 in0.0 mm
09:02 AM 32.4°F0.2°C 29.8°F-1.2°C 90% Calm Calm -- 30.08 in1018.6 mb 0.00 in0.0 mm 0.00 in/hr0.0 mm/hr 0.00 in0.0 mm
09:17 AM 34.2°F1.2°C 30.7°F-0.7°C 87% 0.3 mph ENE0.5 kmh ENE 1.6 mph2.6 kmh 30.08 in1018.6 mb 0.00 in0.0 mm 0.00 in/hr0.0 mm/hr 0.00 in0.0 mm
09:32 AM 38.8°F3.8°C 32.9°F0.5°C 79% 0.1 mph SE0.2 kmh SE 1.6 mph2.6 kmh 30.08 in1018.6 mb 0.00 in0.0 mm 0.00 in/hr0.0 mm/hr 0.00 in0.0 mm
09:47 AM 40.1°F4.5°C 31.4°F-0.3°C 71% 1.5 mph SW2.4 kmh SW 4.5 mph7.2 kmh 30.09 in1019.0 mb 0.00 in0.0 mm 0.00 in/hr0.0 mm/hr 0.00 in0.0 mm
10:02 AM 43.0°F6.1°C 32.6°F0.3°C 67% 1.9 mph SW3.1 kmh SW 3.1 mph5.0 kmh 30.09 in1019.0 mb 0.00 in0.0 mm 0.00 in/hr0.0 mm/hr 0.00 in0.0 mm
10:17 AM 46.0°F7.8°C 32.2°F0.1°C 59% 1.6 mph SW2.6 kmh SW 2.2 mph3.5 kmh 30.09 in1019.0 mb 0.00 in0.0 mm 0.00 in/hr0.0 mm/hr 0.00 in0.0 mm
10:32 AM 46.4°F8.0°C 31.1°F-0.5°C 56% 2.8 mph NW4.5 kmh NW 4.5 mph7.2 kmh 30.09 in1019.0 mb 0.00 in0.0 mm 0.00 in/hr0.0 mm/hr 0.00 in0.0 mm
10:47 AM 47.8°F8.8°C 32.0°F0.0°C 55% 2.6 mph SW4.2 kmh SW 4.5 mph7.2 kmh 30.09 in1019.0 mb 0.00 in0.0 mm 0.00 in/hr0.0 mm/hr 0.00 in0.0 mm
11:02 AM 47.8°F8.8°C 31.0°F-0.6°C 53% 2.6 mph WNW4.2 kmh WNW 3.8 mph6.1 kmh 30.09 in1019.0 mb 0.00 in0.0 mm 0.00 in/hr0.0 mm/hr 0.00 in0.0 mm
11:17 AM 47.5°F8.6°C 31.6°F-0.2°C 55% 1.6 mph WSW2.6 kmh WSW 3.1 mph5.0 kmh 30.09 in1019.0 mb 0.00 in0.0 mm 0.00 in/hr0.0 mm/hr 0.00 in0.0 mm
11:32 AM 49.5°F9.7°C 33.0°F0.6°C 54% 1.3 mph WSW2.1 kmh WSW 2.2 mph3.5 kmh 30.10 in1019.3 mb 0.00 in0.0 mm 0.00 in/hr0.0 mm/hr 0.00 in0.0 mm
11:47 AM 50.0°F10.0°C 33.0°F0.6°C 53% 1.7 mph SSW2.7 kmh SSW 3.8 mph6.1 kmh 30.10 in1019.3 mb 0.00 in0.0 mm 0.00 in/hr0.0 mm/hr 0.00 in0.0 mm
12:02 PM 50.5°F10.3°C 34.0°F1.1°C 54% 2.8 mph SSW4.5 kmh SSW 4.5 mph7.2 kmh 30.11 in1019.6 mb 0.00 in0.0 mm 0.00 in/hr0.0 mm/hr 0.00 in0.0 mm
12:17 PM 50.7°F10.4°C 32.6°F0.3°C 51% 2.4 mph S3.9 kmh S 4.5 mph7.2 kmh 30.10 in1019.3 mb 0.00 in0.0 mm 0.00 in/hr0.0 mm/hr 0.00 in0.0 mm
12:32 PM 51.4°F10.8°C 33.3°F0.7°C 51% 3.0 mph S4.8 kmh S 4.5 mph7.2 kmh 30.10 in1019.3 mb 0.00 in0.0 mm 0.00 in/hr0.0 mm/hr 0.00 in0.0 mm
12:47 PM 51.8°F11.0°C 34.1°F1.2°C 52% 3.1 mph ESE5.0 kmh ESE 3.8 mph6.1 kmh 30.09 in1019.0 mb 0.00 in0.0 mm 0.00 in/hr0.0 mm/hr 0.00 in0.0 mm
01:02 PM 52.5°F11.4°C 34.2°F1.2°C 51% 3.6 mph S5.8 kmh S 6.0 mph9.7 kmh 30.09 in1019.0 mb 0.00 in0.0 mm 0.00 in/hr0.0 mm/hr 0.00 in0.0 mm
01:17 PM 53.2°F11.8°C 35.4°F1.9°C 52% 2.6 mph S4.2 kmh S 6.0 mph9.7 kmh 30.09 in1019.0 mb 0.00 in0.0 mm 0.00 in/hr0.0 mm/hr 0.00 in0.0 mm
01:32 PM 53.6°F12.0°C 35.2°F1.8°C 51% 2.1 mph SSW3.4 kmh SSW 3.1 mph5.0 kmh 30.08 in1018.6 mb 0.00 in0.0 mm 0.00 in/hr0.0 mm/hr 0.00 in0.0 mm
01:47 PM 53.2°F11.8°C 34.9°F1.6°C 51% 2.8 mph E4.5 kmh E 4.5 mph7.2 kmh 30.08 in1018.6 mb 0.00 in0.0 mm 0.00 in/hr0.0 mm/hr 0.00 in0.0 mm
02:02 PM 51.8°F11.0°C 35.1°F1.7°C 54% 3.5 mph E5.6 kmh E 4.5 mph7.2 kmh 30.07 in1018.3 mb 0.00 in0.0 mm 0.00 in/hr0.0 mm/hr 0.00 in0.0 mm
02:17 PM 51.8°F11.0°C 36.1°F2.3°C 56% 3.0 mph S4.8 kmh S 4.5 mph7.2 kmh 30.08 in1018.6 mb 0.00 in0.0 mm 0.00 in/hr0.0 mm/hr 0.00 in0.0 mm
02:32 PM 52.0°F11.1°C 36.3°F2.4°C 56% 3.5 mph SE5.6 kmh SE 4.5 mph7.2 kmh 30.06 in1017.9 mb 0.00 in0.0 mm 0.00 in/hr0.0 mm/hr 0.00 in0.0 mm
02:47 PM 51.8°F11.0°C 36.1°F2.3°C 56% 3.6 mph E5.8 kmh E 5.4 mph8.7 kmh 30.06 in1017.9 mb 0.00 in0.0 mm 0.00 in/hr0.0 mm/hr 0.00 in0.0 mm
03:02 PM 51.3°F10.7°C 36.1°F2.3°C 57% 3.2 mph NE5.1 kmh NE 4.5 mph7.2 kmh 30.06 in1017.9 mb 0.00 in0.0 mm 0.00 in/hr0.0 mm/hr 0.00 in0.0 mm
03:17 PM 51.1°F10.6°C 36.4°F2.4°C 58% 2.5 mph NE4.0 kmh NE 3.8 mph6.1 kmh 30.04 in1017.3 mb 0.00 in0.0 mm 0.00 in/hr0.0 mm/hr 0.00 in0.0 mm
03:32 PM 50.9°F10.5°C 36.2°F2.3°C 58% 2.8 mph E4.5 kmh E 3.8 mph6.1 kmh 30.04 in1017.3 mb 0.00 in0.0 mm 0.00 in/hr0.0 mm/hr 0.00 in0.0 mm
03:47 PM 50.5°F10.3°C 35.9°F2.2°C 58% 2.1 mph NE3.4 kmh NE 3.1 mph5.0 kmh 30.05 in1017.6 mb 0.00 in0.0 mm 0.00 in/hr0.0 mm/hr 0.00 in0.0 mm
04:02 PM 50.4°F10.2°C 36.2°F2.3°C 59% 1.4 mph NE2.3 kmh NE 2.2 mph3.5 kmh 30.04 in1017.3 mb 0.00 in0.0 mm 0.00 in/hr0.0 mm/hr 0.00 in0.0 mm
04:17 PM 50.0°F10.0°C 36.3°F2.4°C 60% 2.2 mph NE3.5 kmh NE 3.8 mph6.1 kmh 30.05 in1017.6 mb 0.00 in0.0 mm 0.00 in/hr0.0 mm/hr 0.00 in0.0 mm
04:32 PM 50.0°F10.0°C 36.7°F2.6°C 61% 1.0 mph NE1.6 kmh NE 2.2 mph3.5 kmh 30.06 in1017.9 mb 0.00 in0.0 mm 0.00 in/hr0.0 mm/hr 0.00 in0.0 mm
04:47 PM 50.0°F10.0°C 37.2°F2.9°C 62% 1.1 mph E1.8 kmh E 1.6 mph2.6 kmh 30.06 in1017.9 mb 0.00 in0.0 mm 0.00 in/hr0.0 mm/hr 0.00 in0.0 mm
05:02 PM 49.8°F9.9°C 36.6°F2.6°C 61% 1.5 mph NNE2.4 kmh NNE 2.2 mph3.5 kmh 30.07 in1018.3 mb 0.00 in0.0 mm 0.00 in/hr0.0 mm/hr 0.00 in0.0 mm
05:17 PM 49.6°F9.8°C 37.3°F2.9°C 63% 0.7 mph SE1.1 kmh SE 1.6 mph2.6 kmh 30.07 in1018.3 mb 0.00 in0.0 mm 0.00 in/hr0.0 mm/hr 0.00 in0.0 mm
05:32 PM 49.3°F9.6°C 37.4°F3.0°C 64% 1.5 mph ENE2.4 kmh ENE 3.1 mph5.0 kmh 30.06 in1017.9 mb 0.00 in0.0 mm 0.00 in/hr0.0 mm/hr 0.00 in0.0 mm
05:47 PM 48.9°F9.4°C 37.8°F3.2°C 66% 0.4 mph N0.6 kmh N 1.6 mph2.6 kmh 30.07 in1018.3 mb 0.00 in0.0 mm 0.00 in/hr0.0 mm/hr 0.00 in0.0 mm
06:02 PM 47.7°F8.7°C 40.0°F4.4°C 75% 1.9 mph ENE3.1 kmh ENE 2.2 mph3.5 kmh 30.07 in1018.3 mb 0.00 in0.0 mm 0.00 in/hr0.0 mm/hr 0.00 in0.0 mm
06:17 PM 46.9°F8.3°C 40.0°F4.4°C 77% 2.3 mph SE3.7 kmh SE 4.5 mph7.2 kmh 30.08 in1018.6 mb 0.00 in0.0 mm 0.00 in/hr0.0 mm/hr 0.00 in0.0 mm
06:32 PM 46.9°F8.3°C 40.4°F4.7°C 78% 1.8 mph E2.9 kmh E 3.1 mph5.0 kmh 30.07 in1018.3 mb 0.00 in0.0 mm 0.00 in/hr0.0 mm/hr 0.00 in0.0 mm
06:47 PM 46.6°F8.1°C 40.4°F4.7°C 79% 1.0 mph E1.6 kmh E 3.8 mph6.1 kmh 30.07 in1018.3 mb 0.00 in0.0 mm 0.00 in/hr0.0 mm/hr 0.00 in0.0 mm
07:02 PM 46.0°F7.8°C 41.5°F5.3°C 84% 1.6 mph SE2.6 kmh SE 2.2 mph3.5 kmh 30.07 in1018.3 mb 0.00 in0.0 mm 0.00 in/hr0.0 mm/hr 0.00 in0.0 mm
07:17 PM 45.5°F7.5°C 42.7°F5.9°C 90% 1.9 mph SSE3.1 kmh SSE 3.8 mph6.1 kmh 30.08 in1018.6 mb 0.00 in0.0 mm 0.00 in/hr0.0 mm/hr 0.00 in0.0 mm
07:32 PM 45.1°F7.3°C 43.5°F6.4°C 94% 2.8 mph SSE4.5 kmh SSE 6.0 mph9.7 kmh 30.07 in1018.3 mb 0.01 in0.3 mm 0.04 in/hr1.0 mm/hr 0.01 in0.3 mm
07:47 PM 44.8°F7.1°C 43.4°F6.3°C 95% 3.8 mph SSW6.1 kmh SSW 6.9 mph11.1 kmh 30.09 in1019.0 mb 0.01 in0.3 mm 0.00 in/hr0.0 mm/hr 0.01 in0.3 mm
08:02 PM 44.2°F6.8°C 43.4°F6.3°C 97% 2.9 mph S4.7 kmh S 5.4 mph8.7 kmh 30.09 in1019.0 mb 0.01 in0.3 mm 0.00 in/hr0.0 mm/hr 0.01 in0.3 mm
08:17 PM 43.9°F6.6°C 43.6°F6.4°C 99% 2.4 mph SE3.9 kmh SE 3.8 mph6.1 kmh 30.09 in1019.0 mb 0.02 in0.5 mm 0.04 in/hr1.0 mm/hr 0.02 in0.5 mm
08:32 PM 43.7°F6.5°C 43.4°F6.3°C 99% 2.8 mph SE4.5 kmh SE 5.4 mph8.7 kmh 30.08 in1018.6 mb 0.02 in0.5 mm 0.00 in/hr0.0 mm/hr 0.04 in1.0 mm
08:47 PM 43.5°F6.4°C 43.3°F6.3°C 99% 0.7 mph ESE1.1 kmh ESE 2.2 mph3.5 kmh 30.09 in1019.0 mb 0.02 in0.5 mm 0.00 in/hr0.0 mm/hr 0.04 in1.0 mm
09:02 PM 43.3°F6.3°C 43.1°F6.2°C 99% 1.7 mph E2.7 kmh E 3.1 mph5.0 kmh 30.07 in1018.3 mb 0.02 in0.5 mm 0.00 in/hr0.0 mm/hr 0.05 in1.3 mm
09:17 PM 43.2°F6.2°C 42.9°F6.1°C 99% 0.9 mph NNE1.4 kmh NNE 3.1 mph5.0 kmh 30.08 in1018.6 mb 0.02 in0.5 mm 0.00 in/hr0.0 mm/hr 0.05 in1.3 mm
09:32 PM 43.2°F6.2°C 42.9°F6.1°C 99% 1.4 mph ENE2.3 kmh ENE 1.6 mph2.6 kmh 30.07 in1018.3 mb 0.02 in0.5 mm 0.00 in/hr0.0 mm/hr 0.06 in1.5 mm
09:47 PM 43.0°F6.1°C 42.7°F5.9°C 99% 2.0 mph E3.2 kmh E 3.1 mph5.0 kmh 30.07 in1018.3 mb 0.04 in1.0 mm 0.08 in/hr2.0 mm/hr 0.07 in1.8 mm
10:02 PM 43.0°F6.1°C 42.7°F5.9°C 99% 2.1 mph SE3.4 kmh SE 4.5 mph7.2 kmh 30.06 in1017.9 mb 0.04 in1.0 mm 0.00 in/hr0.0 mm/hr 0.07 in1.8 mm
10:17 PM 43.0°F6.1°C 42.7°F5.9°C 99% 1.6 mph ESE2.6 kmh ESE 3.1 mph5.0 kmh 30.07 in1018.3 mb 0.04 in1.0 mm 0.00 in/hr0.0 mm/hr 0.08 in2.0 mm
10:32 PM 43.0°F6.1°C 42.7°F5.9°C 99% 1.8 mph S2.9 kmh S 3.1 mph5.0 kmh 30.08 in1018.6 mb 0.02 in0.5 mm 0.00 in/hr0.0 mm/hr 0.08 in2.0 mm
10:47 PM 42.8°F6.0°C 42.5°F5.8°C 99% 1.8 mph E2.9 kmh E 2.2 mph3.5 kmh 30.08 in1018.6 mb 0.04 in1.0 mm 0.08 in/hr2.0 mm/hr 0.11 in2.8 mm
11:02 PM 42.8°F6.0°C 42.5°F5.8°C 99% 1.0 mph NE1.6 kmh NE 1.6 mph2.6 kmh 30.09 in1019.0 mb 0.08 in2.0 mm 0.05 in/hr1.3 mm/hr 0.15 in3.8 mm
11:17 PM 43.0°F6.1°C 42.7°F5.9°C 99% 0.3 mph NNE0.5 kmh NNE 1.6 mph2.6 kmh 30.09 in1019.0 mb 0.08 in2.0 mm 0.00 in/hr0.0 mm/hr 0.17 in4.3 mm
11:32 PM 43.0°F6.1°C 42.7°F5.9°C 99% 0.3 mph ENE0.5 kmh ENE 2.2 mph3.5 kmh 30.08 in1018.6 mb 0.11 in2.8 mm 0.12 in/hr3.0 mm/hr 0.19 in4.8 mm
11:47 PM 42.8°F6.0°C 42.5°F5.8°C 99% 1.5 mph E2.4 kmh E 2.2 mph3.5 kmh 30.07 in1018.3 mb 0.13 in3.3 mm 0.08 in/hr2.0 mm/hr 0.24 in6.1 mm